Time;durP1;ratioP1;P1;durP2;ratioP2;P2;SDS_P1;SDS_P2;PMS_P1;PMS_P2;Temp;Humidity;BMP_temperature;BMP_pressure;BME280_temperature;BME280_humidity;BME280_pressure;Samples;Min_cycle;Max_cycle;Signal;HPM_P1;HPM_P2
2023/04/14 00:00:12;;;;;;;2.15;1.48;;;12.70;69.70;;;;;;5051237;28;20266;-67
2023/04/14 00:02:37;;;;;;;2.30;2.03;;;12.60;69.70;;;;;;5054481;28;20179;-68
2023/04/14 00:05:04;;;;;;;2.45;1.55;;;12.70;69.60;;;;;;5051260;28;20205;-68
2023/04/14 00:07:29;;;;;;;1.58;1.50;;;12.70;69.50;;;;;;5058557;28;20189;-68
2023/04/14 00:09:55;;;;;;;1.83;1.60;;;12.70;69.00;;;;;;5052249;28;20270;-68
2023/04/14 00:12:21;;;;;;;1.85;1.73;;;12.70;68.90;;;;;;5053079;28;20175;-67
2023/04/14 00:14:48;;;;;;;1.27;1.20;;;12.70;69.50;;;;;;5055122;28;20218;-69
2023/04/14 00:17:14;;;;;;;1.83;1.73;;;12.70;69.70;;;;;;5056122;28;20183;-68
2023/04/14 00:19:39;;;;;;;1.65;1.55;;;12.60;70.00;;;;;;5052757;28;20190;-67
2023/04/14 00:22:05;;;;;;;2.28;1.58;;;12.70;69.30;;;;;;5054984;28;20646;-67
2023/04/14 00:24:31;;;;;;;1.52;1.42;;;12.70;69.20;;;;;;5054813;28;20201;-66
2023/04/14 00:26:57;;;;;;;1.30;1.23;;;12.80;69.50;;;;;;5050199;28;20200;-66
2023/04/14 00:29:22;;;;;;;1.75;1.65;;;12.70;69.40;;;;;;5050772;28;20193;-67
2023/04/14 00:31:48;;;;;;;1.50;1.45;;;12.70;69.30;;;;;;5054635;28;20184;-67
2023/04/14 00:34:14;;;;;;;2.05;1.40;;;12.80;69.40;;;;;;5050026;28;20245;-67
2023/04/14 00:36:39;;;;;;;1.80;1.55;;;12.50;70.20;;;;;;5055368;28;20271;-67
2023/04/14 00:39:05;;;;;;;1.52;1.42;;;12.40;69.80;;;;;;5051590;28;20241;-66
2023/04/14 00:41:34;;;;;;;1.45;1.45;;;12.40;69.90;;;;;;5051115;28;20178;-67
2023/04/14 00:44:01;;;;;;;1.75;1.67;;;12.40;70.20;;;;;;5049482;28;20199;-67
2023/04/14 00:46:27;;;;;;;1.67;1.63;;;12.50;69.60;;;;;;5055733;28;20176;-68
2023/04/14 00:48:55;;;;;;;1.95;1.65;;;12.60;69.30;;;;;;5055961;28;20254;-67
2023/04/14 00:51:21;;;;;;;1.65;1.55;;;12.70;69.50;;;;;;5057829;28;20182;-67
2023/04/14 00:53:48;;;;;;;2.20;1.58;;;12.80;69.70;;;;;;5054849;28;20194;-67
2023/04/14 00:56:14;;;;;;;4.22;1.70;;;12.80;70.10;;;;;;5052977;28;20215;-67
2023/04/14 00:58:40;;;;;;;1.65;1.55;;;12.70;70.40;;;;;;5046927;28;20183;-67
2023/04/14 01:01:07;;;;;;;3.30;1.95;;;12.70;70.10;;;;;;5052852;28;20182;-67
2023/04/14 01:03:35;;;;;;;1.52;1.48;;;12.80;70.50;;;;;;5051142;28;20684;-67
2023/04/14 01:06:00;;;;;;;2.85;1.52;;;12.70;71.40;;;;;;5053915;28;20187;-67
2023/04/14 01:08:27;;;;;;;1.48;1.42;;;12.70;71.10;;;;;;5050537;28;20179;-67
2023/04/14 01:11:07;;;;;;;1.40;1.38;;;12.50;71.60;;;;;;5054466;28;20258;-66
2023/04/14 01:13:48;;;;;;;1.67;1.58;;;12.40;71.30;;;;;;5053356;28;20180;-67
2023/04/14 01:16:27;;;;;;;1.42;1.42;;;12.50;70.50;;;;;;5047756;28;20222;-67
2023/04/14 01:18:57;;;;;;;1.33;1.23;;;12.50;71.30;;;;;;5051261;28;20553;-68
2023/04/14 01:21:31;;;;;;;2.13;1.98;;;12.50;71.50;;;;;;5056281;28;20175;-68
2023/04/14 01:24:20;;;;;;;1.58;1.48;;;12.50;71.30;;;;;;5054376;28;20178;-67
2023/04/14 01:26:51;;;;;;;3.22;1.70;;;12.50;71.00;;;;;;5030995;28;20203;-67
2023/04/14 01:29:32;;;;;;;4.57;1.73;;;12.50;71.30;;;;;;5027122;28;20200;-67
2023/04/14 01:32:09;;;;;;;1.60;1.52;;;12.60;71.00;;;;;;5029370;28;20287;-67
2023/04/14 01:34:34;;;;;;;1.85;1.42;;;12.60;71.20;;;;;;5034719;28;20711;-67
2023/04/14 01:37:19;;;;;;;5.00;1.75;;;12.60;71.60;;;;;;5033412;28;20188;-67
2023/04/14 01:39:51;;;;;;;1.80;1.70;;;12.50;72.00;;;;;;5031070;28;20188;-67
2023/04/14 01:42:22;;;;;;;2.28;2.05;;;12.50;71.60;;;;;;5029527;28;20184;-68
2023/04/14 01:44:53;;;;;;;1.55;1.52;;;12.50;71.30;;;;;;5029638;28;20295;-67
2023/04/14 01:47:20;;;;;;;1.92;1.65;;;12.40;72.30;;;;;;5026396;28;20606;-67
2023/04/14 01:49:47;;;;;;;1.73;1.63;;;12.40;72.10;;;;;;5027853;28;20668;-67
2023/04/14 01:52:16;;;;;;;2.67;1.83;;;12.30;72.40;;;;;;5027302;28;20190;-67
2023/04/14 01:54:44;;;;;;;1.50;1.45;;;12.20;72.30;;;;;;5028155;28;20188;-67
2023/04/14 01:57:11;;;;;;;2.60;1.85;;;12.20;72.70;;;;;;5029670;28;20299;-67
2023/04/14 01:59:38;;;;;;;1.48;1.38;;;12.20;72.20;;;;;;5031462;28;20185;-67
2023/04/14 02:02:07;;;;;;;4.07;1.90;;;12.30;72.20;;;;;;5031068;28;20183;-67
2023/04/14 02:04:35;;;;;;;2.28;1.30;;;12.40;72.30;;;;;;5047467;28;20625;-67
2023/04/14 02:07:04;;;;;;;1.77;1.67;;;12.40;71.60;;;;;;5051012;28;20191;-68
2023/04/14 02:09:31;;;;;;;1.63;1.55;;;12.40;71.70;;;;;;5053186;28;20183;-67
2023/04/14 02:11:59;;;;;;;1.90;1.80;;;12.40;71.80;;;;;;5060962;28;20182;-67
2023/04/14 02:14:27;;;;;;;3.13;1.77;;;12.30;72.10;;;;;;5058227;28;20615;-67
2023/04/14 02:16:56;;;;;;;1.77;1.67;;;12.30;72.80;;;;;;5050020;28;20222;-67
2023/04/14 02:19:24;;;;;;;1.80;1.70;;;12.10;72.40;;;;;;5060051;28;20203;-67
2023/04/14 02:21:51;;;;;;;1.77;1.67;;;12.20;72.20;;;;;;5049902;28;20268;-67
2023/04/14 02:24:17;;;;;;;3.08;1.38;;;12.30;72.50;;;;;;5061450;28;20175;-67
2023/04/14 02:27:06;;;;;;;1.30;1.20;;;12.30;72.10;;;;;;5055039;28;20275;-67
2023/04/14 02:29:34;;;;;;;1.23;1.13;;;12.40;72.10;;;;;;5059829;28;20191;-67
2023/04/14 02:32:05;;;;;;;1.98;1.30;;;12.40;71.90;;;;;;5055717;28;20179;-67
2023/04/14 02:34:43;;;;;;;1.50;1.40;;;12.30;72.00;;;;;;5056926;28;20551;-67
2023/04/14 02:37:15;;;;;;;1.33;1.23;;;12.40;71.70;;;;;;5052336;28;20175;-67
2023/04/14 02:39:46;;;;;;;4.40;1.35;;;12.40;72.10;;;;;;5053200;28;20195;-67
2023/04/14 02:42:16;;;;;;;1.05;1.05;;;12.40;72.00;;;;;;5053405;28;20274;-67
2023/04/14 02:44:50;;;;;;;1.15;1.15;;;12.40;72.40;;;;;;5059534;28;20311;-67
2023/04/14 02:47:28;;;;;;;3.17;1.00;;;12.20;72.90;;;;;;5054977;28;20182;-66
2023/04/14 02:49:55;;;;;;;1.17;1.08;;;12.00;73.20;;;;;;5055226;28;20191;-67
2023/04/14 02:52:25;;;;;;;1.17;1.17;;;11.90;73.50;;;;;;5052022;28;20636;-67
2023/04/14 02:54:52;;;;;;;0.98;0.98;;;12.00;73.20;;;;;;5051354;28;20184;-67
2023/04/14 02:57:19;;;;;;;1.27;1.27;;;12.00;72.90;;;;;;5057320;28;20199;-68
2023/04/14 02:59:46;;;;;;;1.30;1.20;;;12.10;73.00;;;;;;5058621;28;20282;-67
2023/04/14 03:02:12;;;;;;;1.58;1.23;;;12.10;72.90;;;;;;5053407;28;20183;-67
2023/04/14 03:04:39;;;;;;;1.15;1.02;;;12.10;73.30;;;;;;5060109;28;20585;-67
2023/04/14 03:07:08;;;;;;;1.02;1.00;;;12.10;72.90;;;;;;5053371;28;20186;-66
2023/04/14 03:09:35;;;;;;;1.80;0.98;;;12.00;73.40;;;;;;5054139;28;20601;-67
2023/04/14 03:12:02;;;;;;;0.90;0.90;;;12.00;73.70;;;;;;5059325;28;20179;-67
2023/04/14 03:14:29;;;;;;;1.02;1.00;;;12.00;73.80;;;;;;5053807;28;20186;-67
2023/04/14 03:16:56;;;;;;;1.08;1.08;;;11.80;74.60;;;;;;5055072;28;20301;-67
2023/04/14 03:19:24;;;;;;;0.80;0.80;;;11.80;74.10;;;;;;5053136;28;20774;-67
2023/04/14 03:21:51;;;;;;;1.75;1.50;;;11.80;73.70;;;;;;5057449;28;20619;-68
2023/04/14 03:24:26;;;;;;;1.95;1.50;;;11.70;74.80;;;;;;5058756;28;20649;-67
2023/04/14 03:26:56;;;;;;;1.42;1.17;;;11.70;74.30;;;;;;5048364;28;20180;-67
2023/04/14 03:29:25;;;;;;;2.03;1.60;;;11.60;75.10;;;;;;5059376;28;20183;-67
2023/04/14 03:31:55;;;;;;;1.58;1.23;;;11.70;74.60;;;;;;5050694;28;20184;-67
2023/04/14 03:34:23;;;;;;;1.35;1.35;;;11.70;74.40;;;;;;5055230;28;20187;-67
2023/04/14 03:36:51;;;;;;;1.10;1.10;;;11.80;74.00;;;;;;5054629;28;20215;-67
2023/04/14 03:39:19;;;;;;;1.70;1.52;;;11.80;74.20;;;;;;5054310;28;20910;-67
2023/04/14 03:41:48;;;;;;;1.48;1.38;;;11.80;74.30;;;;;;5053187;28;20186;-67
2023/04/14 03:44:17;;;;;;;1.10;1.10;;;11.80;74.40;;;;;;5056080;28;20265;-67
2023/04/14 03:46:43;;;;;;;0.95;0.95;;;11.80;74.40;;;;;;5057728;28;20203;-66
2023/04/14 03:49:10;;;;;;;3.72;1.27;;;11.90;74.40;;;;;;5057654;28;20183;-67
2023/04/14 03:51:39;;;;;;;0.90;0.90;;;11.90;74.10;;;;;;5054143;28;20179;-67
2023/04/14 03:54:05;;;;;;;1.38;1.33;;;11.90;74.50;;;;;;5051036;28;20190;-67
2023/04/14 03:56:37;;;;;;;1.25;1.25;;;11.80;74.40;;;;;;5056812;28;20227;-66
2023/04/14 03:59:03;;;;;;;1.15;1.15;;;11.80;74.90;;;;;;5053536;28;20195;-66
2023/04/14 04:01:31;;;;;;;1.35;1.05;;;11.80;74.90;;;;;;5053011;28;20272;-66
2023/04/14 04:04:01;;;;;;;1.20;1.20;;;11.80;74.90;;;;;;5053764;28;20179;-67
2023/04/14 04:06:27;;;;;;;1.23;1.15;;;11.80;74.60;;;;;;5055210;28;20179;-66
2023/04/14 04:08:55;;;;;;;1.48;1.38;;;11.80;74.70;;;;;;5042502;28;20179;-67
2023/04/14 04:11:22;;;;;;;0.93;0.93;;;11.80;74.60;;;;;;5055398;28;20191;-67
2023/04/14 04:13:48;;;;;;;2.05;1.23;;;11.80;74.60;;;;;;5049152;28;20703;-66
2023/04/14 04:16:15;;;;;;;1.35;1.20;;;11.80;74.60;;;;;;5042954;28;20214;-67
2023/04/14 04:18:45;;;;;;;1.88;1.25;;;11.80;74.70;;;;;;5052892;28;20298;-69
2023/04/14 04:21:15;;;;;;;1.40;1.30;;;11.80;74.90;;;;;;5055376;28;20245;-69
2023/04/14 04:23:46;;;;;;;1.50;1.40;;;11.80;74.90;;;;;;5054196;28;20672;-68
2023/04/14 04:26:12;;;;;;;1.05;1.05;;;11.80;75.00;;;;;;5046822;28;20260;-68
2023/04/14 04:28:39;;;;;;;1.33;1.27;;;11.80;74.60;;;;;;5050600;28;20263;-68
2023/04/14 04:31:06;;;;;;;1.38;1.27;;;11.80;74.40;;;;;;5052921;28;20237;-68
2023/04/14 04:33:33;;;;;;;1.50;1.50;;;11.80;74.30;;;;;;5051765;28;20175;-68
2023/04/14 04:35:59;;;;;;;1.70;1.35;;;11.80;74.40;;;;;;5049122;28;20216;-68
2023/04/14 04:38:25;;;;;;;1.10;1.10;;;11.80;74.20;;;;;;5049834;28;20179;-68
2023/04/14 04:40:51;;;;;;;3.92;1.63;;;11.80;74.20;;;;;;5056797;28;20210;-67
2023/04/14 04:43:18;;;;;;;1.73;1.50;;;11.50;76.20;;;;;;5049435;28;20201;-68
2023/04/14 04:46:19;;;;;;;1.70;1.40;;;11.40;76.50;;;;;;5048049;28;20179;-67
2023/04/14 04:48:45;;;;;;;1.90;1.52;;;11.40;76.30;;;;;;5049365;28;20187;-69
2023/04/14 04:51:11;;;;;;;1.60;1.42;;;11.30;76.50;;;;;;5054608;28;20266;-68
2023/04/14 04:53:36;;;;;;;5.18;1.58;;;11.30;76.20;;;;;;5054998;28;20254;-68
2023/04/14 04:56:02;;;;;;;1.00;1.00;;;11.50;75.60;;;;;;5056283;28;20217;-69
2023/04/14 04:58:28;;;;;;;1.30;1.20;;;11.60;75.30;;;;;;5055373;28;20255;-68
2023/04/14 05:00:54;;;;;;;1.02;1.02;;;11.70;75.10;;;;;;5053919;28;20340;-68
2023/04/14 05:03:19;;;;;;;1.13;1.10;;;11.80;75.00;;;;;;5051656;28;20186;-68
2023/04/14 05:05:45;;;;;;;2.53;1.48;;;11.90;75.00;;;;;;5051806;28;20274;-68
2023/04/14 05:08:11;;;;;;;1.70;1.70;;;12.00;74.50;;;;;;5050125;28;20601;-68
2023/04/14 05:10:37;;;;;;;6.93;1.42;;;12.10;74.60;;;;;;5051370;28;20180;-68
2023/04/14 05:13:02;;;;;;;1.58;1.50;;;12.20;74.40;;;;;;5056362;28;20179;-68
2023/04/14 05:15:28;;;;;;;1.52;1.17;;;12.30;74.70;;;;;;5051133;28;20271;-67
2023/04/14 05:17:54;;;;;;;2.13;1.65;;;12.20;75.10;;;;;;5054825;28;20182;-68
2023/04/14 05:20:19;;;;;;;1.77;1.67;;;12.30;75.40;;;;;;5054617;28;20194;-67
2023/04/14 05:22:45;;;;;;;1.70;1.60;;;12.30;75.20;;;;;;5049713;28;20186;-68
2023/04/14 05:25:11;;;;;;;1.25;1.23;;;12.30;75.30;;;;;;5052914;28;20179;-68
2023/04/14 05:27:36;;;;;;;1.75;1.65;;;12.40;74.50;;;;;;5052682;28;20570;-68
2023/04/14 05:30:02;;;;;;;2.08;1.80;;;12.50;74.60;;;;;;5056317;28;20572;-68
2023/04/14 05:32:28;;;;;;;1.90;1.80;;;12.50;74.20;;;;;;5051593;28;20668;-67
2023/04/14 05:34:53;;;;;;;1.48;1.40;;;12.60;74.00;;;;;;5051206;28;20186;-68
2023/04/14 05:37:19;;;;;;;1.67;1.58;;;12.60;74.00;;;;;;5049298;28;20214;-68
2023/04/14 05:39:45;;;;;;;1.90;1.80;;;12.60;73.90;;;;;;5053103;28;20226;-68
2023/04/14 05:42:10;;;;;;;2.28;1.42;;;12.70;73.40;;;;;;5053420;28;20179;-68
2023/04/14 05:44:36;;;;;;;1.50;1.40;;;12.80;73.10;;;;;;5053889;28;20195;-68
2023/04/14 05:47:02;;;;;;;1.50;1.50;;;12.90;73.40;;;;;;5049624;28;20616;-67
2023/04/14 05:49:28;;;;;;;1.15;1.15;;;12.90;73.60;;;;;;5055488;28;20183;-67
2023/04/14 05:51:55;;;;;;;1.70;1.50;;;12.90;72.40;;;;;;5054746;28;20178;-68
2023/04/14 05:54:21;;;;;;;3.67;1.00;;;12.90;73.10;;;;;;5051800;28;20171;-67
2023/04/14 05:56:46;;;;;;;1.00;1.00;;;13.00;71.40;;;;;;5054045;28;20213;-68
2023/04/14 05:59:12;;;;;;;0.75;0.75;;;13.00;71.90;;;;;;5047399;28;20638;-68
2023/04/14 06:01:38;;;;;;;1.20;1.20;;;13.10;71.90;;;;;;5053237;28;20232;-68
2023/04/14 06:04:03;;;;;;;0.90;0.90;;;13.20;71.70;;;;;;5051894;28;20190;-68
2023/04/14 06:06:31;;;;;;;2.33;1.13;;;13.20;71.90;;;;;;5055760;28;20266;-68
2023/04/14 06:08:57;;;;;;;1.08;1.05;;;13.30;71.70;;;;;;5050986;28;20179;-68
2023/04/14 06:11:22;;;;;;;1.05;1.05;;;13.50;71.40;;;;;;5050907;28;20186;-68
2023/04/14 06:13:49;;;;;;;2.50;1.17;;;13.60;70.90;;;;;;5050306;28;20175;-68
2023/04/14 06:16:14;;;;;;;1.08;1.02;;;13.70;70.70;;;;;;5054853;28;20219;-67
2023/04/14 06:18:40;;;;;;;1.30;1.25;;;13.80;71.20;;;;;;5049124;28;20190;-68
2023/04/14 06:21:06;;;;;;;1.45;1.27;;;13.90;70.80;;;;;;5055121;28;20191;-68
2023/04/14 06:23:32;;;;;;;1.33;1.27;;;14.00;70.50;;;;;;5050323;28;20175;-68
2023/04/14 06:25:58;;;;;;;1.60;1.27;;;14.10;70.50;;;;;;5051038;28;20189;-68
2023/04/14 06:28:25;;;;;;;2.08;1.20;;;14.10;70.30;;;;;;5049916;28;20180;-68
2023/04/14 06:30:51;;;;;;;1.05;0.90;;;14.20;70.30;;;;;;5052999;28;20306;-68
2023/04/14 06:33:17;;;;;;;3.60;1.10;;;14.30;68.80;;;;;;5052854;28;20263;-68
2023/04/14 06:35:43;;;;;;;3.40;1.00;;;14.30;69.80;;;;;;5057466;28;20218;-68
2023/04/14 06:38:09;;;;;;;1.13;1.13;;;14.40;69.60;;;;;;5049957;28;20569;-67
2023/04/14 06:40:35;;;;;;;1.25;1.15;;;14.40;69.40;;;;;;5051475;28;20179;-68
2023/04/14 06:43:00;;;;;;;1.55;1.05;;;14.60;69.10;;;;;;5048729;28;20265;-68
2023/04/14 06:45:26;;;;;;;1.17;1.10;;;14.70;68.50;;;;;;5054604;28;20187;-68
2023/04/14 06:47:52;;;;;;;0.98;0.98;;;14.70;68.40;;;;;;5048609;28;20179;-69
2023/04/14 06:50:17;;;;;;;0.88;0.88;;;14.80;68.00;;;;;;5053511;28;20216;-69
2023/04/14 06:52:43;;;;;;;0.98;0.98;;;14.90;68.00;;;;;;5057242;28;20224;-69
2023/04/14 06:55:09;;;;;;;1.73;1.33;;;15.00;68.00;;;;;;5054778;28;20222;-70
2023/04/14 06:57:35;;;;;;;1.23;1.23;;;15.10;68.10;;;;;;5057099;28;20179;-69
2023/04/14 07:00:00;;;;;;;2.72;1.50;;;15.20;68.00;;;;;;5050856;28;20175;-70
2023/04/14 07:02:27;;;;;;;1.80;1.27;;;15.30;68.20;;;;;;5052641;28;20176;-69
2023/04/14 07:04:53;;;;;;;1.30;1.15;;;15.40;68.10;;;;;;5056720;28;20183;-69
2023/04/14 07:07:19;;;;;;;1.08;1.08;;;15.50;68.00;;;;;;5054450;28;20171;-69
2023/04/14 07:09:44;;;;;;;1.23;0.90;;;15.50;67.80;;;;;;5054352;28;20183;-69
2023/04/14 07:12:14;;;;;;;1.27;1.17;;;15.70;67.60;;;;;;5058854;28;20245;-70
2023/04/14 07:14:40;;;;;;;0.73;0.73;;;15.80;67.30;;;;;;5053897;28;20187;-69
2023/04/14 07:17:06;;;;;;;0.77;0.70;;;16.00;67.20;;;;;;5053727;28;20215;-69
2023/04/14 07:19:31;;;;;;;3.28;1.00;;;16.20;66.70;;;;;;5056403;28;20234;-70
2023/04/14 07:21:57;;;;;;;2.08;0.77;;;16.20;66.30;;;;;;5055131;28;20258;-69
2023/04/14 07:24:23;;;;;;;0.70;0.70;;;16.40;66.30;;;;;;5051704;28;20182;-69
2023/04/14 07:26:48;;;;;;;1.25;1.25;;;16.50;65.60;;;;;;5052165;28;20188;-69
2023/04/14 07:29:14;;;;;;;1.48;0.85;;;16.40;65.50;;;;;;5053940;28;20176;-69
2023/04/14 07:31:40;;;;;;;0.80;0.77;;;16.50;65.10;;;;;;5051354;28;20562;-69
2023/04/14 07:34:06;;;;;;;1.20;1.10;;;16.60;65.50;;;;;;5055923;28;20171;-70
2023/04/14 07:36:32;;;;;;;1.38;1.00;;;16.70;64.90;;;;;;5054302;28;20302;-69
2023/04/14 07:38:58;;;;;;;0.68;0.68;;;16.90;64.60;;;;;;5054715;28;20270;-70
2023/04/14 07:41:25;;;;;;;0.98;0.85;;;17.10;63.90;;;;;;5050026;28;20275;-68
2023/04/14 07:43:54;;;;;;;1.48;1.00;;;17.10;63.50;;;;;;5050686;28;20192;-68
2023/04/14 07:46:20;;;;;;;0.80;0.75;;;17.20;63.70;;;;;;5057045;28;20199;-70
2023/04/14 07:48:46;;;;;;;1.23;1.10;;;17.30;63.30;;;;;;5056353;28;20175;-68
2023/04/14 07:51:12;;;;;;;1.92;0.90;;;17.40;62.90;;;;;;5053738;28;20225;-69
2023/04/14 07:53:41;;;;;;;1.00;0.95;;;17.40;63.30;;;;;;5051684;28;20179;-69
2023/04/14 07:56:07;;;;;;;3.28;0.90;;;17.50;63.30;;;;;;5053031;28;20261;-69
2023/04/14 07:58:33;;;;;;;0.82;0.82;;;17.70;63.10;;;;;;5053753;28;20662;-69
2023/04/14 08:00:59;;;;;;;1.13;0.77;;;17.90;62.90;;;;;;5052333;28;20185;-69
2023/04/14 08:03:24;;;;;;;1.35;1.00;;;18.10;62.50;;;;;;5051283;28;20186;-70
2023/04/14 08:05:51;;;;;;;0.82;0.80;;;18.20;62.10;;;;;;5050589;28;20286;-69
2023/04/14 08:08:16;;;;;;;2.47;1.00;;;18.40;62.00;;;;;;5050395;28;20702;-69
2023/04/14 08:10:42;;;;;;;1.52;1.08;;;18.60;61.20;;;;;;5050683;28;20283;-70
2023/04/14 08:13:08;;;;;;;0.63;0.63;;;18.70;60.60;;;;;;5047195;28;20184;-69
2023/04/14 08:15:34;;;;;;;0.98;0.85;;;18.90;60.20;;;;;;5050656;28;20296;-69
2023/04/14 08:18:00;;;;;;;0.90;0.90;;;18.90;60.50;;;;;;5049480;28;20867;-70
2023/04/14 08:20:26;;;;;;;0.93;0.93;;;19.00;59.80;;;;;;5053896;28;20190;-70
2023/04/14 08:22:51;;;;;;;1.02;0.90;;;19.10;60.00;;;;;;5048683;28;20811;-70
2023/04/14 08:25:17;;;;;;;4.20;1.00;;;19.10;60.10;;;;;;5055664;28;20333;-70
2023/04/14 08:27:43;;;;;;;1.08;0.90;;;19.10;60.10;;;;;;5050422;28;20680;-68
2023/04/14 08:30:09;;;;;;;1.58;0.70;;;19.00;59.70;;;;;;5052729;28;20254;-70
2023/04/14 08:32:35;;;;;;;1.42;0.80;;;19.10;59.60;;;;;;5054095;28;20203;-71
2023/04/14 08:35:01;;;;;;;1.15;0.90;;;19.00;59.30;;;;;;5052950;28;20284;-70
2023/04/14 08:37:27;;;;;;;2.78;0.80;;;19.10;59.30;;;;;;5053335;28;20186;-70
2023/04/14 08:39:52;;;;;;;3.33;0.82;;;19.10;59.20;;;;;;5051429;28;20263;-68
2023/04/14 08:42:20;;;;;;;2.97;0.85;;;19.20;54.10;;;;;;5053148;28;20260;-69
2023/04/14 08:44:46;;;;;;;2.92;0.80;;;19.70;50.50;;;;;;5052278;28;20195;-69
2023/04/14 08:47:13;;;;;;;8.80;0.90;;;20.10;50.50;;;;;;5052015;28;20282;-70
2023/04/14 08:49:42;;;;;;;2.95;0.68;;;20.40;50.50;;;;;;5053358;28;20183;-69
2023/04/14 08:52:11;;;;;;;4.88;1.17;;;20.70;48.60;;;;;;5052666;28;20176;-68
2023/04/14 08:54:39;;;;;;;1.88;0.77;;;20.90;48.80;;;;;;5052350;28;20182;-69
2023/04/14 08:57:08;;;;;;;2.58;0.65;;;20.90;48.50;;;;;;5054900;28;20277;-68
2023/04/14 08:59:34;;;;;;;7.35;0.80;;;20.90;48.40;;;;;;5047714;28;20576;-70
2023/04/14 09:02:00;;;;;;;2.03;0.70;;;21.00;49.10;;;;;;5048173;28;20183;-72
2023/04/14 09:04:27;;;;;;;6.20;1.00;;;21.20;48.00;;;;;;5047157;28;20294;-71
2023/04/14 09:06:55;;;;;;;0.52;0.43;;;21.20;48.00;;;;;;5051241;28;20275;-71
2023/04/14 09:09:22;;;;;;;11.50;1.00;;;21.40;48.20;;;;;;5049153;28;20180;-72
2023/04/14 09:11:48;;;;;;;5.20;0.80;;;21.90;47.70;;;;;;5050985;28;20200;-71
2023/04/14 09:14:15;;;;;;;1.48;0.55;;;22.30;46.50;;;;;;5048065;28;20184;-72
2023/04/14 09:16:41;;;;;;;3.13;0.80;;;22.40;46.90;;;;;;5049299;28;20293;-71
2023/04/14 09:19:07;;;;;;;4.55;0.73;;;22.50;46.20;;;;;;5048826;28;20329;-72
2023/04/14 09:21:33;;;;;;;5.55;0.88;;;22.80;46.20;;;;;;5049035;28;20176;-73
2023/04/14 09:23:59;;;;;;;7.50;0.93;;;23.20;45.80;;;;;;5047634;28;20187;-72
2023/04/14 09:26:27;;;;;;;3.53;0.70;;;23.30;46.20;;;;;;5046007;28;20188;-74
2023/04/14 09:28:52;;;;;;;2.33;0.73;;;23.70;45.30;;;;;;5044747;28;20237;-70
2023/04/14 09:31:19;;;;;;;3.28;0.88;;;23.50;45.50;;;;;;5044737;28;20273;-69
2023/04/14 09:33:49;;;;;;;4.85;0.88;;;23.60;45.70;;;;;;5051474;28;22111;-71
2023/04/14 09:36:22;;;;;;;4.38;1.27;;;23.50;46.00;;;;;;5051992;28;20221;-71
2023/04/14 09:38:50;;;;;;;4.50;0.63;;;23.50;46.90;;;;;;5045149;28;20320;-70
2023/04/14 09:41:23;;;;;;;3.90;0.75;;;22.90;46.20;;;;;;5043907;28;20180;-71
2023/04/14 09:43:49;;;;;;;5.13;0.77;;;23.00;46.60;;;;;;5050203;28;20677;-70
2023/04/14 09:46:15;;;;;;;3.75;0.98;;;23.10;46.60;;;;;;5044760;28;20195;-71
2023/04/14 09:48:54;;;;;;;10.57;1.40;;;23.20;47.00;;;;;;5048546;28;20819;-72
2023/04/14 09:51:27;;;;;;;3.65;0.95;;;23.70;46.10;;;;;;5049383;28;20215;-70
2023/04/14 09:53:53;;;;;;;9.57;1.02;;;24.00;46.20;;;;;;5057270;28;20175;-71
2023/04/14 09:56:24;;;;;;;8.23;0.93;;;23.90;46.00;;;;;;5050469;28;20195;-70
2023/04/14 09:58:50;;;;;;;3.35;1.20;;;23.70;46.40;;;;;;5050779;28;20186;-71
2023/04/14 10:01:18;;;;;;;5.72;0.90;;;24.40;46.80;;;;;;5048316;28;20179;-70
2023/04/14 10:03:47;;;;;;;8.80;1.00;;;24.90;45.80;;;;;;5051051;28;20211;-70
2023/04/14 10:06:21;;;;;;;1.40;0.85;;;25.00;45.90;;;;;;5049468;28;20705;-70
2023/04/14 10:08:52;;;;;;;4.13;0.85;;;24.20;46.60;;;;;;5049270;28;20183;-71
2023/04/14 10:11:23;;;;;;;5.65;0.90;;;24.00;46.80;;;;;;5046053;28;20874;-70
2023/04/14 10:13:58;;;;;;;6.93;1.13;;;23.80;46.80;;;;;;5048306;28;20613;-70
2023/04/14 10:16:25;;;;;;;1.85;0.80;;;23.90;47.10;;;;;;5044444;28;20218;-70
2023/04/14 10:18:52;;;;;;;11.38;1.13;;;23.80;47.20;;;;;;5047408;28;20183;-71
2023/04/14 10:21:21;;;;;;;1.35;1.05;;;23.30;47.80;;;;;;5046032;28;20270;-71
2023/04/14 10:23:47;;;;;;;8.38;0.95;;;22.80;48.70;;;;;;5049190;28;20191;-71
2023/04/14 10:26:14;;;;;;;7.88;1.35;;;22.60;49.20;;;;;;5053300;28;20240;-72
2023/04/14 10:28:49;;;;;;;2.40;0.88;;;22.30;49.90;;;;;;5052748;28;20256;-71
2023/04/14 10:31:23;;;;;;;1.70;0.82;;;22.50;50.10;;;;;;5050979;28;20187;-71
2023/04/14 10:33:49;;;;;;;4.82;1.30;;;22.80;50.80;;;;;;5049648;28;20270;-71
2023/04/14 10:36:27;;;;;;;4.68;0.80;;;22.40;51.30;;;;;;5053276;28;20834;-71
2023/04/14 10:39:00;;;;;;;8.25;1.23;;;21.70;53.50;;;;;;5052938;28;20185;-71
2023/04/14 10:41:26;;;;;;;3.58;1.17;;;22.00;53.40;;;;;;5055143;28;20179;-71
2023/04/14 10:43:52;;;;;;;1.48;0.60;;;21.70;55.30;;;;;;5053507;28;20218;-69
2023/04/14 10:46:18;;;;;;;3.17;0.60;;;21.20;58.30;;;;;;5053268;28;20240;-69
2023/04/14 10:48:47;;;;;;;3.95;0.80;;;20.60;63.20;;;;;;5053662;28;20661;-70
2023/04/14 10:51:16;;;;;;;2.10;0.52;;;19.30;64.80;;;;;;5054092;28;20175;-70
2023/04/14 10:53:54;;;;;;;2.17;0.57;;;18.70;65.40;;;;;;5053268;28;20179;-70
2023/04/14 10:56:22;;;;;;;0.30;0.22;;;18.50;65.40;;;;;;5052317;28;20276;-70
2023/04/14 10:58:56;;;;;;;0.38;0.30;;;18.00;64.60;;;;;;5046245;28;20237;-68
2023/04/14 11:01:29;;;;;;;0.20;0.20;;;17.50;65.20;;;;;;5056298;28;20267;-69
2023/04/14 11:03:56;;;;;;;0.20;0.20;;;16.90;66.60;;;;;;5051102;28;20199;-70
2023/04/14 11:06:46;;;;;;;0.20;0.10;;;16.40;67.10;;;;;;5048973;28;20218;-70
2023/04/14 11:09:35;;;;;;;0.20;0.20;;;15.80;68.00;;;;;;5050461;28;20206;-70
2023/04/14 11:12:25;;;;;;;0.13;0.10;;;15.10;68.70;;;;;;5050972;28;20172;-69
2023/04/14 11:14:55;;;;;;;0.05;0.05;;;14.70;68.70;;;;;;5050903;28;20275;-70
2023/04/14 11:17:21;;;;;;;0.00;0.00;;;14.40;69.20;;;;;;5054424;28;20721;-70
2023/04/14 11:19:51;;;;;;;0.00;0.00;;;14.10;69.60;;;;;;5052033;28;20584;-70
2023/04/14 11:22:40;;;;;;;0.00;0.00;;;13.90;69.30;;;;;;5056197;28;20179;-69
2023/04/14 11:25:09;;;;;;;0.10;0.10;;;13.70;69.60;;;;;;5052009;28;20187;-70
2023/04/14 11:27:36;;;;;;;3.67;0.10;;;13.80;69.20;;;;;;5048060;28;20221;-70
2023/04/14 11:30:02;;;;;;;0.10;0.10;;;13.90;68.30;;;;;;5051558;28;20190;-70
2023/04/14 11:32:29;;;;;;;0.10;0.10;;;13.80;68.60;;;;;;5052728;28;20175;-70
2023/04/14 11:34:54;;;;;;;0.15;0.10;;;13.80;68.40;;;;;;5053940;28;20681;-70
2023/04/14 11:37:20;;;;;;;0.38;0.10;;;13.80;68.40;;;;;;5055970;28;20175;-70
2023/04/14 11:39:47;;;;;;;0.35;0.05;;;13.70;69.00;;;;;;5052239;28;20186;-71
2023/04/14 11:42:13;;;;;;;0.10;0.10;;;13.80;67.90;;;;;;5085216;28;20579;-70
2023/04/14 11:44:39;;;;;;;0.10;0.10;;;14.00;67.50;;;;;;5048064;28;20184;-70
2023/04/14 11:47:04;;;;;;;0.10;0.10;;;13.90;67.70;;;;;;5048465;28;20309;-70
2023/04/14 11:49:36;;;;;;;0.10;0.10;;;13.80;68.10;;;;;;5047377;28;20180;-70
2023/04/14 11:52:08;;;;;;;2.35;0.10;;;14.00;68.00;;;;;;5055270;28;20180;-71
2023/04/14 11:54:35;;;;;;;0.00;0.00;;;13.90;68.70;;;;;;5054140;28;20244;-71
2023/04/14 11:57:01;;;;;;;0.10;0.10;;;13.50;70.30;;;;;;5050925;28;20223;-70
2023/04/14 11:59:28;;;;;;;0.30;0.30;;;13.30;71.30;;;;;;5046713;28;20192;-71
2023/04/14 12:01:56;;;;;;;2.70;0.00;;;13.40;72.50;;;;;;5048669;28;20188;-70
2023/04/14 12:04:23;;;;;;;0.08;0.05;;;13.80;70.70;;;;;;5048623;28;20199;-70
2023/04/14 12:06:48;;;;;;;0.10;0.10;;;14.50;71.00;;;;;;5050737;28;20187;-70
2023/04/14 12:09:14;;;;;;;0.10;0.10;;;15.10;70.10;;;;;;5049348;28;20186;-71
2023/04/14 12:11:40;;;;;;;0.10;0.10;;;15.10;68.30;;;;;;5054155;28;20183;-71
2023/04/14 12:14:06;;;;;;;0.00;0.00;;;15.30;69.10;;;;;;5048462;28;20175;-72
2023/04/14 12:16:32;;;;;;;0.30;0.13;;;15.50;69.20;;;;;;5050203;28;20307;-71
2023/04/14 12:18:57;;;;;;;0.00;0.00;;;15.50;69.20;;;;;;5043895;28;20176;-71
2023/04/14 12:21:23;;;;;;;0.10;0.10;;;15.60;69.20;;;;;;5051456;28;20187;-71
2023/04/14 12:23:49;;;;;;;0.03;0.03;;;15.40;68.70;;;;;;5052804;28;20184;-71
2023/04/14 12:26:15;;;;;;;0.10;0.10;;;15.30;70.30;;;;;;5049074;28;20257;-71
2023/04/14 12:28:41;;;;;;;0.10;0.10;;;15.10;70.10;;;;;;5045223;28;20630;-70
2023/04/14 12:31:08;;;;;;;0.17;0.17;;;15.20;71.50;;;;;;5052620;28;20176;-70
2023/04/14 12:33:33;;;;;;;2.85;0.10;;;16.00;69.60;;;;;;5053806;28;20269;-70
2023/04/14 12:36:10;;;;;;;0.85;0.10;;;16.70;68.20;;;;;;5048914;28;20704;-68
2023/04/14 12:38:36;;;;;;;0.10;0.10;;;17.70;67.50;;;;;;5050100;28;20171;-70
2023/04/14 12:41:01;;;;;;;0.00;0.00;;;18.90;63.80;;;;;;5043564;28;20244;-70
2023/04/14 12:43:35;;;;;;;0.10;0.10;;;20.10;59.90;;;;;;5045660;28;20203;-69
2023/04/14 12:46:06;;;;;;;0.10;0.10;;;20.70;59.20;;;;;;5054112;28;20242;-71
2023/04/14 12:48:47;;;;;;;0.00;0.00;;;21.70;58.20;;;;;;5043434;28;20277;-71